Аэропорт: Байкал. Улан-Удэ

ICAO: UIUU

METAR:
2019/01/21 22:30
UIUU 212230Z 08002MPS 040V110 3300 FU SCT036 M20/M23 Q1019 R26/810550 NOSIG RMK QFE720/0960
METAR:
2019/01/21 21:21
TAF UIUU 212000Z 2121/2221 27003G08MPS 2900 FU SCT030 
      TEMPO 2121/2204 1200 BR FU 
      BECMG 2204/2206 4000 FU